Aérodrome :
LOGIN :

S'inscrire | Disclaimer

   EN    FR    IT 

 










Légende :    VFR   VFR Marginal   IFR   IFR Intensif   IFR Très Intensif
Visi : 
Plafond : 
>= 8 km
>= 3000ft
5 à 8 km
1000 à 3000 ft
1500m à 5 km
500 à 1000 ft
800 à 1500m
200 à 500 ft
< 800m
< 200 ft
Symboles :   Orages  Brouillard  Fortes neiges  Fortes précipitations  Vent > 20 kt
SIGMETs :   Divers  Orages  Givrage  Turbulence  Onde Orograph.  Cendres Volcan.






- Altitude de l'aérodrome : 2425 ft


ETHA - Altenstadt Army

DERNIER METAR :
  • 201720Z 27003KT 9999 FEW220 05/M01 Q1018 BLU+BLU+

METARs EXPIRÉS :
  • 201620Z 27004KT 9999 FEW260 07/M01 Q1018 BLU+BLU+
  • 201520Z 29005KT 9999 FEW100 BKN260 08/M01 Q1019 BLU+BLU+

TAF AMD TAF ETHA
Valide du 20 à 15h jusqu'au 21 à 00h UTC


201705Z 2015/2024 24005KT 9999 NSW FEW040 BKN250
BECMG 2020/2022 26015G25KT 9999 NSW SCT030 BKN080 CANCEL 1820



MET'MAP, la Météo Aéronautique d'un coup d'oeil ! - Copyright ORBIFLY Décembre 2007 - Disclaimer

ORBIFLY MET'MAP TEAM :

Programmation & Développement : Alexandra Zaïnal
Sur une idée originale de : Baudouin d'Aumeries
Assistance à la programmation : Marc-Olivier Méhu
Soutien technique & logistique : Manuel Goepfert

Contact : metmap@orbifly.com




SOURCES & CREDITS :

   NOAA